createdAt,value
2023-03-21T00:02:48.503Z,63.92
2023-03-21T00:07:45.301Z,67.38
2023-03-21T00:12:43.698Z,68.73
2023-03-21T00:17:40.276Z,66.09
2023-03-21T00:22:39.796Z,63.37
2023-03-21T00:28:05.310Z,61.69
2023-03-21T00:32:56.670Z,61.21
2023-03-21T00:37:54.376Z,60.23
2023-03-21T00:42:52.011Z,59.88
2023-03-21T00:47:48.974Z,58.82
2023-03-21T00:52:46.098Z,57.90
2023-03-21T00:57:47.559Z,57.56
2023-03-21T01:03:02.594Z,56.68
2023-03-21T01:08:07.916Z,64.71
2023-03-21T01:13:11.961Z,62.37
2023-03-21T01:18:08.667Z,61.11
2023-03-21T01:23:05.586Z,60.51
2023-03-21T01:28:02.310Z,60.51
2023-03-21T01:32:59.818Z,60.21
2023-03-21T01:37:56.787Z,59.38
2023-03-21T01:42:53.740Z,58.97
2023-03-21T01:47:51.820Z,58.67
2023-03-21T01:52:55.843Z,57.87
2023-03-21T01:58:06.643Z,58.14
2023-03-21T02:03:29.529Z,59.23
2023-03-21T02:08:39.901Z,61.34
2023-03-21T02:13:41.947Z,62.01
2023-03-21T02:18:47.318Z,63.13
2023-03-21T02:23:57.618Z,63.61
2023-03-21T02:28:57.803Z,66.95
2023-03-21T02:34:13.426Z,66.32
2023-03-21T02:39:14.601Z,64.62
2023-03-21T02:44:17.355Z,64.00
2023-03-21T02:49:16.875Z,63.32
2023-03-21T02:54:30.363Z,63.13
2023-03-21T02:59:35.780Z,61.53
2023-03-21T03:04:37.910Z,62.82
2023-03-21T03:09:39.658Z,62.04
2023-03-21T03:14:56.441Z,60.77
2023-03-21T03:20:15.615Z,60.10
2023-03-21T03:25:27.206Z,59.59
2023-03-21T03:30:42.242Z,58.99
2023-03-21T03:35:48.305Z,60.01
2023-03-21T03:40:54.660Z,60.81
2023-03-21T03:46:13.524Z,63.90
2023-03-21T03:51:16.877Z,63.04
2023-03-21T03:56:32.760Z,62.53
2023-03-21T04:01:29.954Z,64.12
2023-03-21T04:06:28.592Z,63.75
2023-03-21T04:11:25.468Z,64.35
2023-03-21T04:16:25.679Z,64.63
2023-03-21T04:21:22.758Z,65.30
2023-03-21T04:26:20.649Z,66.64
2023-03-21T04:31:40.948Z,66.66
2023-03-21T04:36:44.022Z,67.94
2023-03-21T04:41:42.117Z,66.49
2023-03-21T04:46:40.498Z,65.32
2023-03-21T04:51:38.922Z,63.38
2023-03-21T04:56:40.452Z,62.16
2023-03-21T05:01:37.149Z,62.06
2023-03-21T05:06:34.597Z,62.27
2023-03-21T05:11:31.674Z,62.42
2023-03-21T05:16:30.744Z,62.78
2023-03-21T05:21:29.186Z,62.97
2023-03-21T05:26:29.056Z,63.16
2023-03-21T05:31:39.970Z,64.67
2023-03-21T05:36:40.594Z,67.39
2023-03-21T05:41:40.726Z,67.75
2023-03-21T05:46:38.686Z,65.66
2023-03-21T05:51:36.221Z,68.61
2023-03-21T05:56:33.253Z,68.75
2023-03-21T06:01:35.076Z,69.36
2023-03-21T06:06:43.040Z,69.22
2023-03-21T06:11:43.162Z,69.58
2023-03-21T06:16:58.587Z,69.50
2023-03-21T06:21:55.438Z,71.68
2023-03-21T06:26:52.209Z,70.60
2023-03-21T06:32:11.029Z,70.94
2023-03-21T06:37:08.916Z,74.76
2023-03-21T06:42:14.097Z,75.55
2023-03-21T06:47:11.711Z,73.79
2023-03-21T06:52:14.461Z,72.09
2023-03-21T06:57:13.005Z,70.02
2023-03-21T07:02:10.479Z,70.68
2023-03-21T07:07:17.301Z,70.16
2023-03-21T07:12:26.943Z,69.17
2023-03-21T07:44:55.448Z,70.73
2023-03-21T09:10:19.033Z,65.03
2023-03-21T09:15:16.434Z,64.61
2023-03-21T09:20:18.205Z,63.37
2023-03-21T09:25:20.898Z,64.23
2023-03-21T09:31:04.946Z,63.88
2023-03-21T09:36:09.598Z,63.93
2023-03-21T09:41:16.907Z,63.98
2023-03-21T09:46:17.907Z,64.03
2023-03-21T09:51:18.288Z,63.91
2023-03-21T09:56:20.874Z,63.76
2023-03-21T10:01:27.815Z,64.31
2023-03-21T10:06:39.533Z,62.99
2023-03-21T10:11:42.018Z,63.30
2023-03-21T10:16:42.569Z,62.96
2023-03-21T10:22:03.742Z,63.82
2023-03-21T10:27:04.485Z,63.12
2023-03-21T10:32:07.173Z,63.31
2023-03-21T10:37:06.173Z,62.48
2023-03-21T10:42:09.618Z,62.46
2023-03-21T10:47:17.171Z,62.13
2023-03-21T10:52:18.656Z,61.78
2023-03-21T10:57:22.248Z,61.64
2023-03-21T11:02:21.606Z,61.06
2023-03-21T11:07:30.708Z,60.39
2023-03-21T11:12:36.808Z,60.04
2023-03-21T11:17:38.024Z,59.89
2023-03-21T11:22:39.934Z,58.98
2023-03-21T11:27:47.878Z,58.63
2023-03-21T11:32:58.636Z,57.04
2023-03-21T11:38:01.460Z,58.29
2023-03-21T11:43:03.944Z,57.97
2023-03-21T11:48:04.892Z,57.89
2023-03-21T11:53:12.741Z,57.36
2023-03-21T11:58:27.243Z,58.39
2023-03-21T12:03:47.985Z,59.19
2023-03-21T12:08:51.042Z,59.89
2023-03-21T12:13:56.659Z,59.56
2023-03-21T12:19:16.580Z,59.70
2023-03-21T12:24:19.987Z,59.23
2023-03-21T12:29:31.740Z,58.60
2023-03-21T12:34:49.445Z,58.41
2023-03-21T12:39:53.910Z,59.18
2023-03-21T12:44:55.950Z,58.08
2023-03-21T12:50:01.249Z,57.34
2023-03-21T12:55:18.650Z,57.20
2023-03-21T13:00:22.663Z,58.41
2023-03-21T13:05:28.460Z,57.64
2023-03-21T13:10:25.992Z,57.68
2023-03-21T13:15:43.138Z,57.78
2023-03-21T13:20:48.724Z,57.67
2023-03-21T13:25:47.640Z,56.62
2023-03-21T13:30:50.621Z,56.10
2023-03-21T13:36:00.541Z,56.59
2023-03-21T13:41:04.318Z,57.04
2023-03-21T13:46:08.120Z,56.97
2023-03-21T13:51:06.430Z,56.85
2023-03-21T13:56:22.963Z,58.63
2023-03-21T14:01:36.059Z,57.31
2023-03-21T14:06:44.287Z,56.90
2023-03-21T14:11:46.471Z,56.79
2023-03-21T14:16:46.081Z,56.00
2023-03-21T14:21:53.084Z,55.30
2023-03-21T14:27:00.852Z,55.09
2023-03-21T14:32:04.033Z,54.80
2023-03-21T14:37:01.349Z,54.82
2023-03-21T14:42:05.062Z,55.34
2023-03-21T14:47:07.955Z,57.47
2023-03-21T14:52:09.878Z,60.27
2023-03-21T14:57:10.960Z,61.54
2023-03-21T15:02:20.365Z,62.17
2023-03-21T15:07:29.526Z,61.88
2023-03-21T15:12:26.762Z,62.03
2023-03-21T15:17:30.814Z,61.72
2023-03-21T15:22:37.035Z,61.74
2023-03-21T15:27:38.092Z,62.08
2023-03-21T15:32:38.299Z,62.09
2023-03-21T15:37:39.440Z,61.33
2023-03-21T15:42:45.503Z,61.71
2023-03-21T15:47:57.708Z,63.52
2023-03-21T15:53:05.065Z,63.81
2023-03-21T15:58:07.451Z,63.55
2023-03-21T16:03:11.050Z,64.24
2023-03-21T16:08:21.345Z,64.06
2023-03-21T16:13:20.156Z,64.04
2023-03-21T16:18:17.703Z,63.59
2023-03-21T16:23:19.735Z,63.03
2023-03-21T16:28:22.494Z,64.90
2023-03-21T16:33:21.428Z,64.07
2023-03-21T16:38:22.081Z,63.18
2023-03-21T16:43:19.061Z,63.25
2023-03-21T16:48:17.121Z,63.46
2023-03-21T16:53:17.461Z,65.23
2023-03-21T16:58:16.664Z,65.66
2023-03-21T17:03:14.810Z,65.16
2023-03-21T17:08:16.022Z,64.98
2023-03-21T17:13:13.567Z,64.18
2023-03-21T17:18:11.082Z,64.08
2023-03-21T17:23:18.289Z,64.37
2023-03-21T17:28:17.466Z,64.69
2023-03-21T17:33:29.051Z,65.58
2023-03-21T17:38:34.289Z,65.69
2023-03-21T17:43:32.150Z,67.12
2023-03-21T17:48:30.502Z,68.67
2023-03-21T17:53:27.650Z,68.24
2023-03-21T17:58:27.903Z,69.17
2023-03-21T18:03:28.629Z,70.64
2023-03-21T18:08:32.099Z,68.90
2023-03-21T18:13:29.058Z,69.05
2023-03-21T18:18:27.497Z,68.60
2023-03-21T18:23:26.883Z,68.85
2023-03-21T18:28:26.705Z,69.01
2023-03-21T18:33:23.685Z,67.72
2023-03-21T18:38:24.330Z,67.65
2023-03-21T18:48:49.210Z,70.11
2023-03-21T18:53:47.872Z,69.72
2023-03-21T18:58:46.336Z,68.88
2023-03-21T19:04:14.426Z,68.21
2023-03-21T19:09:07.980Z,67.42
2023-03-21T19:14:06.233Z,67.78
2023-03-21T19:19:03.209Z,67.48
2023-03-21T19:24:25.059Z,67.36
2023-03-21T19:29:21.256Z,67.97
2023-03-21T19:34:18.549Z,67.73
2023-03-21T19:39:22.793Z,67.18
2023-03-21T19:44:21.770Z,67.17
2023-03-21T19:49:23.859Z,66.68
2023-03-21T19:54:29.642Z,66.59
2023-03-21T19:59:28.641Z,66.12
2023-03-21T20:04:28.013Z,65.58
2023-03-21T20:09:50.513Z,65.49
2023-03-21T20:14:47.311Z,65.37
2023-03-21T20:19:44.183Z,65.72
2023-03-21T20:24:45.357Z,65.34
2023-03-21T20:35:17.368Z,65.36
2023-03-21T20:40:19.250Z,65.84
2023-03-21T20:45:22.206Z,66.88
2023-03-21T20:50:22.113Z,67.51
2023-03-21T20:55:20.902Z,68.89
2023-03-21T21:00:21.475Z,68.72
2023-03-21T21:05:27.842Z,68.91
2023-03-21T21:10:26.121Z,69.69
2023-03-21T21:15:27.413Z,70.84
2023-03-21T21:20:25.331Z,70.64
2023-03-21T21:25:24.611Z,70.47
2023-03-21T21:30:24.352Z,71.48
2023-03-21T21:35:26.301Z,72.01
2023-03-21T21:40:23.716Z,72.12
2023-03-21T21:45:20.575Z,72.29
2023-03-21T21:50:24.584Z,72.46
2023-03-21T21:55:24.521Z,73.38
2023-03-21T22:00:21.466Z,73.30
2023-03-21T22:05:18.551Z,73.58
2023-03-21T22:10:15.421Z,73.39
2023-03-21T22:15:13.227Z,74.26
2023-03-21T22:20:11.538Z,75.38
2023-03-21T22:25:12.502Z,75.90
2023-03-21T22:30:13.191Z,76.41
2023-03-21T22:35:11.021Z,76.01
2023-03-21T22:40:09.469Z,76.32
2023-03-21T22:45:07.143Z,77.75
2023-03-21T22:50:04.289Z,79.10
2023-03-21T22:55:02.725Z,79.38
2023-03-21T23:00:02.988Z,79.23
2023-03-21T23:05:02.369Z,78.34
2023-03-21T23:09:59.170Z,79.71
2023-03-21T23:14:59.858Z,79.96
2023-03-21T23:20:00.258Z,80.26
2023-03-21T23:24:57.431Z,84.06
2023-03-21T23:29:58.908Z,86.69
2023-03-21T23:34:56.440Z,88.05
2023-03-21T23:39:54.675Z,88.14
2023-03-21T23:44:51.595Z,86.64
2023-03-21T23:49:49.611Z,85.34
2023-03-21T23:54:54.334Z,84.28
2023-03-21T23:59:53.959Z,84.87
